createdAt,value
2022-10-11T00:00:37.562Z,100865.94
2022-10-11T00:01:39.116Z,100868.75
2022-10-11T00:02:40.655Z,100863.94
2022-10-11T00:03:42.134Z,100868.75
2022-10-11T00:04:43.598Z,100865.09
2022-10-11T00:05:45.120Z,100867.94
2022-10-11T00:06:47.334Z,100862.28
2022-10-11T00:07:48.787Z,100871.59
2022-10-11T00:08:50.351Z,100861.44
2022-10-11T00:09:51.798Z,100862.59
2022-10-11T00:10:57.017Z,100861.44
2022-10-11T00:11:58.499Z,100869.06
2022-10-11T00:12:59.941Z,100867.09
2022-10-11T00:14:01.465Z,100866.25
2022-10-11T00:15:03.998Z,100867.09
2022-10-11T00:16:09.206Z,100865.41
2022-10-11T00:17:10.784Z,100871.06
2022-10-11T00:18:12.231Z,100868.25
2022-10-11T00:19:13.728Z,100871.06
2022-10-11T00:20:15.269Z,100871.06
2022-10-11T00:21:16.725Z,100876.19
2022-10-11T00:22:18.195Z,100872.22
2022-10-11T00:23:19.693Z,100871.38
2022-10-11T00:24:21.201Z,100880.72
2022-10-11T00:25:22.627Z,100873.38
2022-10-11T00:26:24.131Z,100877.34
2022-10-11T00:27:25.591Z,100883.00
2022-10-11T00:28:27.269Z,100879.66
2022-10-11T00:29:28.810Z,100877.66
2022-10-11T00:30:30.305Z,100879.66
2022-10-11T00:31:35.496Z,100881.66
2022-10-11T00:32:37.611Z,100887.31
2022-10-11T00:33:39.291Z,100881.97
2022-10-11T00:34:40.817Z,100876.31
2022-10-11T00:35:42.379Z,100877.44
2022-10-11T00:36:44.495Z,100887.94
2022-10-11T00:37:46.254Z,100889.91
2022-10-11T00:38:47.987Z,100875.22
2022-10-11T00:39:49.594Z,100891.03
2022-10-11T00:40:51.039Z,100891.34
2022-10-11T00:41:52.471Z,100891.66
2022-10-11T00:42:53.971Z,100892.81
2022-10-11T00:44:11.727Z,100883.19
2022-10-11T00:45:42.575Z,100891.13
2022-10-11T00:46:55.697Z,100895.13
2022-10-11T00:48:01.234Z,100895.44
2022-10-11T00:49:06.953Z,100886.09
2022-10-11T00:50:08.544Z,100901.38
2022-10-11T00:51:32.989Z,100901.38
2022-10-11T00:52:35.410Z,100895.22
2022-10-11T00:53:36.882Z,100897.47
2022-10-11T00:54:39.027Z,100898.63
2022-10-11T00:55:41.841Z,100898.09
2022-10-11T00:56:43.814Z,100896.41
2022-10-11T00:57:46.992Z,100896.72
2022-10-11T00:58:48.472Z,100902.69
2022-10-11T00:59:51.032Z,100901.03
2022-10-11T01:00:53.904Z,100902.16
2022-10-11T01:01:55.486Z,100902.16
2022-10-11T01:02:56.922Z,100907.28
2022-10-11T01:03:58.411Z,100906.44
2022-10-11T01:05:18.308Z,100901.91
2022-10-11T01:06:21.455Z,100902.22
2022-10-11T01:07:22.963Z,100903.38
2022-10-11T01:08:24.546Z,100902.53
2022-10-11T01:09:26.196Z,100900.03
2022-10-11T01:10:27.744Z,100910.81
2022-10-11T01:11:29.491Z,100898.66
2022-10-11T01:12:31.002Z,100912.78
2022-10-11T01:13:41.235Z,100903.78
2022-10-11T01:14:58.012Z,100902.94
2022-10-11T01:16:05.854Z,100906.91
2022-10-11T01:17:13.759Z,100904.38
2022-10-11T01:18:15.178Z,100905.78
2022-10-11T01:19:25.522Z,100900.16
2022-10-11T01:20:36.012Z,100902.13
2022-10-11T01:21:37.444Z,100908.09
2022-10-11T01:22:54.141Z,100905.88
2022-10-11T01:24:04.699Z,100903.38
2022-10-11T01:25:08.994Z,100906.50
2022-10-11T01:26:13.207Z,100907.34
2022-10-11T01:27:33.111Z,100909.34
2022-10-11T01:28:37.454Z,100911.59
2022-10-11T01:29:48.503Z,100908.25
2022-10-11T01:30:50.536Z,100917.03
2022-10-11T01:31:56.697Z,100919.31
2022-10-11T01:33:00.327Z,100915.66
2022-10-11T01:34:23.303Z,100909.47
2022-10-11T01:35:27.548Z,100906.94
2022-10-11T01:36:33.755Z,100913.44
2022-10-11T01:37:35.322Z,100913.44
2022-10-11T01:38:47.088Z,100913.44
2022-10-11T01:39:49.718Z,100911.75
2022-10-11T01:40:53.210Z,100912.06
2022-10-11T01:41:55.546Z,100918.00
2022-10-11T01:42:57.019Z,100918.84
2022-10-11T01:43:59.182Z,100909.53
2022-10-11T01:45:00.635Z,100913.50
2022-10-11T01:46:02.488Z,100914.66
2022-10-11T01:47:04.157Z,100912.97
2022-10-11T01:48:09.590Z,100918.63
2022-10-11T01:49:11.095Z,100919.22
2022-10-11T01:50:33.497Z,100914.19
2022-10-11T01:51:36.167Z,100922.97
2022-10-11T01:52:37.688Z,100919.59
2022-10-11T01:53:54.337Z,100916.53
2022-10-11T01:55:11.008Z,100927.31
2022-10-11T01:56:12.490Z,100925.63
2022-10-11T01:57:25.923Z,100930.44
2022-10-11T01:58:27.399Z,100925.94
2022-10-11T01:59:28.884Z,100922.25
2022-10-11T02:01:05.693Z,100926.22
2022-10-11T02:02:25.056Z,100936.44
2022-10-11T02:03:34.174Z,100929.09
2022-10-11T02:04:44.390Z,100924.91
2022-10-11T02:05:55.743Z,100928.88
2022-10-11T02:06:58.546Z,100928.34
2022-10-11T02:08:03.056Z,100928.34
2022-10-11T02:09:08.357Z,100928.66
2022-10-11T02:10:17.742Z,100934.59
2022-10-11T02:11:20.638Z,100936.59
2022-10-11T02:12:28.643Z,100929.22
2022-10-11T02:13:32.864Z,100938.00
2022-10-11T02:14:35.716Z,100932.13
2022-10-11T02:15:38.560Z,100930.44
2022-10-11T02:16:43.839Z,100928.75
2022-10-11T02:17:47.875Z,100930.22
2022-10-11T02:18:50.211Z,100931.63
2022-10-11T02:19:52.343Z,100932.78
2022-10-11T02:20:54.045Z,100928.28
2022-10-11T02:21:56.919Z,100936.72
2022-10-11T02:23:07.059Z,100934.53
2022-10-11T02:24:09.999Z,100933.75
2022-10-11T02:25:12.732Z,100943.06
2022-10-11T02:26:14.334Z,100939.09
2022-10-11T02:27:16.007Z,100938.25
2022-10-11T02:28:18.581Z,100935.72
2022-10-11T02:29:20.610Z,100938.56
2022-10-11T02:30:22.059Z,100935.72
2022-10-11T02:31:23.560Z,100939.69
2022-10-11T02:32:25.060Z,100941.94
2022-10-11T02:33:27.434Z,100943.94
2022-10-11T02:34:31.699Z,100939.44
2022-10-11T02:35:34.350Z,100949.88
2022-10-11T02:36:47.494Z,100940.31
2022-10-11T02:38:03.060Z,100940.59
2022-10-11T02:39:08.015Z,100946.25
2022-10-11T02:40:11.643Z,100939.78
2022-10-11T02:41:15.733Z,100953.03
2022-10-11T02:42:21.065Z,100943.72
2022-10-11T02:43:30.257Z,100950.50
2022-10-11T02:44:35.887Z,100948.81
2022-10-11T02:45:37.930Z,100955.31
2022-10-11T02:46:39.658Z,100957.28
2022-10-11T02:47:41.142Z,100953.59
2022-10-11T02:48:42.635Z,100953.91
2022-10-11T02:49:44.154Z,100956.19
2022-10-11T02:50:45.643Z,100960.16
2022-10-11T02:51:47.128Z,100960.16
2022-10-11T02:52:48.606Z,100952.84
2022-10-11T02:53:50.066Z,100968.38
2022-10-11T02:54:51.559Z,100956.25
2022-10-11T02:55:53.434Z,100961.38
2022-10-11T02:56:54.891Z,100961.38
2022-10-11T02:57:56.378Z,100965.31
2022-10-11T02:58:57.911Z,100962.50
2022-10-11T02:59:59.374Z,100967.28
2022-10-11T03:01:00.883Z,100960.25
2022-10-11T03:02:02.391Z,100971.53
2022-10-11T03:03:03.903Z,100971.00
2022-10-11T03:04:05.418Z,100960.84
2022-10-11T03:05:06.999Z,100972.13
2022-10-11T03:06:09.307Z,100965.66
2022-10-11T03:07:10.852Z,100981.75
2022-10-11T03:08:12.726Z,100974.13
2022-10-11T03:09:14.279Z,100976.09
2022-10-11T03:10:15.750Z,100975.25
2022-10-11T03:11:17.276Z,100978.91
2022-10-11T03:12:18.749Z,100977.22
2022-10-11T03:13:20.186Z,100972.72
2022-10-11T03:14:21.642Z,100974.41
2022-10-11T03:15:23.106Z,100973.88
2022-10-11T03:16:24.536Z,100968.22
2022-10-11T03:17:42.052Z,100985.16
2022-10-11T03:18:43.540Z,100982.34
2022-10-11T03:19:45.043Z,100982.34
2022-10-11T03:20:46.491Z,100986.28
2022-10-11T03:21:47.933Z,100982.34
2022-10-11T03:22:49.386Z,100984.31
2022-10-11T03:23:50.875Z,100981.50
2022-10-11T03:24:52.388Z,100967.69
2022-10-11T03:25:53.869Z,100986.28
2022-10-11T03:26:55.351Z,100978.13
2022-10-11T03:27:56.888Z,100976.78
2022-10-11T03:28:58.391Z,100980.06
2022-10-11T03:29:59.913Z,100987.69
2022-10-11T03:31:01.463Z,100991.38
2022-10-11T03:32:03.027Z,100986.84
2022-10-11T03:33:04.458Z,100986.84
2022-10-11T03:34:05.944Z,100996.47
2022-10-11T03:35:07.692Z,100986.03
2022-10-11T03:36:09.360Z,100985.19
2022-10-11T03:37:11.017Z,100994.78
2022-10-11T03:38:13.176Z,100995.91
2022-10-11T03:39:14.696Z,101000.72
2022-10-11T03:40:16.241Z,100997.06
2022-10-11T03:41:17.698Z,101001.84
2022-10-11T03:42:19.123Z,100997.06
2022-10-11T03:43:20.590Z,101003.84
2022-10-11T03:44:22.024Z,100999.34
2022-10-11T03:45:23.582Z,100993.69
2022-10-11T03:46:25.156Z,101004.13
2022-10-11T03:47:26.607Z,101009.78
2022-10-11T03:48:28.126Z,101007.78
2022-10-11T03:49:29.571Z,101004.13
2022-10-11T03:50:31.283Z,101007.78
2022-10-11T03:51:32.767Z,101010.63
2022-10-11T03:52:34.400Z,101013.44
2022-10-11T03:53:35.931Z,101011.75
2022-10-11T03:54:37.456Z,101008.94
2022-10-11T03:55:40.263Z,101014.56
2022-10-11T03:56:41.767Z,101018.53
2022-10-11T03:57:43.233Z,101013.19
2022-10-11T03:58:44.670Z,101009.53
2022-10-11T03:59:46.227Z,101012.34
2022-10-11T04:00:47.724Z,101008.69
2022-10-11T04:01:49.229Z,101008.69
2022-10-11T04:02:50.772Z,101011.78
2022-10-11T04:03:54.689Z,101020.25
2022-10-11T04:04:56.128Z,101010.09
2022-10-11T04:05:57.663Z,101008.13
2022-10-11T04:06:59.099Z,101003.63
2022-10-11T04:08:00.538Z,101016.34
2022-10-11T04:09:02.024Z,101013.81
2022-10-11T04:10:03.526Z,101024.25
2022-10-11T04:11:05.099Z,101016.91
2022-10-11T04:12:06.622Z,101020.88
2022-10-11T04:13:09.143Z,101004.88
2022-10-11T04:14:10.605Z,101020.88
2022-10-11T04:15:15.164Z,101014.94
2022-10-11T04:16:16.771Z,101016.09
2022-10-11T04:17:18.216Z,101021.72
2022-10-11T04:18:19.755Z,101023.69
2022-10-11T04:19:21.612Z,101025.38
2022-10-11T04:20:23.042Z,101033.84
2022-10-11T04:21:24.550Z,101026.53
2022-10-11T04:22:26.004Z,101022.84
2022-10-11T04:23:27.459Z,101030.47
2022-10-11T04:24:29.039Z,101025.69
2022-10-11T04:25:30.610Z,101033.59
2022-10-11T04:26:32.207Z,101029.94
2022-10-11T04:27:33.704Z,101021.47
2022-10-11T04:28:35.320Z,101026.28
2022-10-11T04:29:36.851Z,101025.41
2022-10-11T04:30:38.370Z,101032.75
2022-10-11T04:31:40.071Z,101025.41
2022-10-11T04:32:41.575Z,101029.34
2022-10-11T04:33:43.050Z,101038.94
2022-10-11T04:34:44.515Z,101042.91
2022-10-11T04:35:46.063Z,101035.59
2022-10-11T04:36:49.930Z,101038.69
2022-10-11T04:37:51.647Z,101039.53
2022-10-11T04:38:56.238Z,101045.19
2022-10-11T04:39:57.706Z,101049.72
2022-10-11T04:41:05.876Z,101049.72
2022-10-11T04:42:07.315Z,101047.22
2022-10-11T04:43:08.755Z,101053.97
2022-10-11T04:44:10.260Z,101050.31
2022-10-11T04:45:11.708Z,101061.59
2022-10-11T04:46:13.194Z,101059.88
2022-10-11T04:47:14.690Z,101052.00
2022-10-11T04:48:16.166Z,101054.00
2022-10-11T04:49:17.737Z,101053.44
2022-10-11T04:50:19.197Z,101055.41
2022-10-11T04:51:20.705Z,101063.88
2022-10-11T04:52:25.568Z,101072.91
2022-10-11T04:53:27.472Z,101073.75
2022-10-11T04:54:28.927Z,101074.91
2022-10-11T04:55:30.434Z,101068.41
2022-10-11T04:56:32.174Z,101074.91
2022-10-11T04:57:33.643Z,101076.03
2022-10-11T04:58:35.302Z,101069.56
2022-10-11T04:59:36.769Z,101078.00
2022-10-11T05:00:38.220Z,101076.88
2022-10-11T05:01:39.813Z,101088.69
2022-10-11T05:02:41.311Z,101072.94
2022-10-11T05:03:42.802Z,101081.38
2022-10-11T05:04:44.261Z,101070.16
2022-10-11T05:05:45.724Z,101084.22
2022-10-11T05:06:47.202Z,101083.41
2022-10-11T05:07:48.646Z,101092.97
2022-10-11T05:08:50.326Z,101089.88
2022-10-11T05:09:51.914Z,101083.66
2022-10-11T05:10:56.950Z,101088.44
2022-10-11T05:11:58.499Z,101094.66
2022-10-11T05:12:59.947Z,101096.94
2022-10-11T05:14:01.388Z,101095.25
2022-10-11T05:15:03.168Z,101098.38
2022-10-11T05:16:09.560Z,101100.63
2022-10-11T05:17:12.439Z,101097.22
2022-10-11T05:18:13.966Z,101102.31
2022-10-11T05:19:15.398Z,101096.13
2022-10-11T05:20:16.858Z,101102.91
2022-10-11T05:21:22.655Z,101106.28
2022-10-11T05:22:24.266Z,101101.25
2022-10-11T05:23:25.876Z,101105.16
2022-10-11T05:24:27.467Z,101127.97
2022-10-11T05:25:28.947Z,101111.38
2022-10-11T05:26:30.802Z,101113.63
2022-10-11T05:27:32.361Z,101124.91
2022-10-11T05:28:34.050Z,101108.59
2022-10-11T05:29:35.573Z,101124.63
2022-10-11T05:30:37.048Z,101119.59
2022-10-11T05:31:38.551Z,101122.09
2022-10-11T05:32:40.078Z,101115.91
2022-10-11T05:33:41.690Z,101119.88
2022-10-11T05:34:43.155Z,101122.97
2022-10-11T05:35:44.675Z,101124.94
2022-10-11T05:36:46.141Z,101124.38
2022-10-11T05:37:47.628Z,101126.34
2022-10-11T05:38:49.084Z,101126.66
2022-10-11T05:39:50.660Z,101134.22
2022-10-11T05:40:52.209Z,101130.56
2022-10-11T05:41:53.746Z,101128.03
2022-10-11T05:42:55.258Z,101132.28
2022-10-11T05:43:56.710Z,101134.25
2022-10-11T05:44:58.142Z,101126.09
2022-10-11T05:45:59.710Z,101134.81
2022-10-11T05:47:01.203Z,101137.06
2022-10-11T05:48:02.683Z,101144.97
2022-10-11T05:49:04.197Z,101141.84
2022-10-11T05:50:05.811Z,101137.34
2022-10-11T05:51:07.723Z,101143.56
2022-10-11T05:52:10.704Z,101137.38
2022-10-11T05:53:12.126Z,101140.19
2022-10-11T05:54:13.574Z,101143.81
2022-10-11T05:55:15.080Z,101145.78
2022-10-11T05:56:20.286Z,101152.00
2022-10-11T05:57:21.797Z,101151.44
2022-10-11T05:58:23.290Z,101155.38
2022-10-11T05:59:24.752Z,101152.00
2022-10-11T06:00:26.233Z,101157.06
2022-10-11T06:01:27.804Z,101150.84
2022-10-11T06:02:29.318Z,101159.56
2022-10-11T06:03:30.762Z,101157.06
2022-10-11T06:04:35.784Z,101167.47
2022-10-11T06:05:37.289Z,101171.13
2022-10-11T06:06:38.737Z,101159.31
2022-10-11T06:07:40.378Z,101152.84
2022-10-11T06:08:41.843Z,101166.06
2022-10-11T06:09:43.278Z,101168.03
2022-10-11T06:10:44.845Z,101165.50
2022-10-11T06:11:46.519Z,101162.09
2022-10-11T06:12:48.414Z,101168.84
2022-10-11T06:13:49.925Z,101170.78
2022-10-11T06:14:51.378Z,101171.06
2022-10-11T06:15:52.806Z,101179.78
2022-10-11T06:16:54.253Z,101178.94
2022-10-11T06:17:56.031Z,101182.88
2022-10-11T06:18:57.641Z,101177.53
2022-10-11T06:19:59.152Z,101182.88
2022-10-11T06:21:00.675Z,101178.94
2022-10-11T06:22:02.183Z,101182.06
2022-10-11T06:23:03.673Z,101176.72
2022-10-11T06:24:05.374Z,101177.81
2022-10-11T06:25:07.243Z,101178.09
2022-10-11T06:26:09.804Z,101178.38
2022-10-11T06:27:11.928Z,101177.53
2022-10-11T06:28:13.450Z,101179.50
2022-10-11T06:29:15.096Z,101179.50
2022-10-11T06:30:16.572Z,101185.41
2022-10-11T06:31:18.023Z,101189.34
2022-10-11T06:32:19.591Z,101199.75
2022-10-11T06:33:21.075Z,101201.16
2022-10-11T06:34:22.761Z,101196.94
2022-10-11T06:35:24.265Z,101194.13
2022-10-11T06:36:25.894Z,101197.78
2022-10-11T06:37:27.340Z,101199.75
2022-10-11T06:38:28.830Z,101197.78
2022-10-11T06:39:30.322Z,101202.56
2022-10-11T06:40:31.792Z,101197.78
2022-10-11T06:41:33.330Z,101198.63
2022-10-11T06:42:34.888Z,101197.78
2022-10-11T06:43:36.386Z,101205.94
2022-10-11T06:44:38.263Z,101202.84
2022-10-11T06:45:39.747Z,101215.50
2022-10-11T06:46:41.248Z,101194.69
2022-10-11T06:47:42.771Z,101213.81
2022-10-11T06:48:44.531Z,101206.81
2022-10-11T06:49:45.981Z,101198.94
2022-10-11T06:50:59.576Z,101204.84
2022-10-11T06:52:01.614Z,101208.22
2022-10-11T06:53:03.094Z,101205.13
2022-10-11T06:54:05.279Z,101208.25
2022-10-11T06:55:06.868Z,101206.84
2022-10-11T06:56:09.952Z,101213.34
2022-10-11T06:57:11.868Z,101220.38
2022-10-11T06:58:13.361Z,101213.63
2022-10-11T06:59:15.087Z,101212.78
2022-10-11T07:00:16.743Z,101214.19
2022-10-11T07:01:20.202Z,101223.50
2022-10-11T07:02:21.782Z,101219.53
2022-10-11T07:03:23.321Z,101220.97
2022-10-11T07:04:24.770Z,101222.06
2022-10-11T07:05:26.311Z,101219.00
2022-10-11T07:06:28.299Z,101224.31
2022-10-11T07:07:29.857Z,101221.22
2022-10-11T07:08:31.411Z,101229.06
2022-10-11T07:09:34.176Z,101222.88
2022-10-11T07:10:35.734Z,101231.59
2022-10-11T07:11:37.281Z,101225.41
2022-10-11T07:12:38.752Z,101230.72
2022-10-11T07:13:40.230Z,101238.06
2022-10-11T07:14:41.824Z,101237.44
2022-10-11T07:15:43.260Z,101229.53
2022-10-11T07:16:44.710Z,101239.09
2022-10-11T07:17:46.498Z,101235.66
2022-10-11T07:18:48.163Z,101242.38
2022-10-11T07:19:49.638Z,101236.44
2022-10-11T07:20:51.090Z,101239.22
2022-10-11T07:21:52.597Z,101247.09
2022-10-11T07:22:54.544Z,101242.84
2022-10-11T07:23:56.053Z,101239.41
2022-10-11T07:24:57.589Z,101236.00
2022-10-11T07:25:59.083Z,101243.28
2022-10-11T07:27:00.578Z,101241.81
2022-10-11T07:28:02.067Z,101239.53
2022-10-11T07:29:03.701Z,101244.34
2022-10-11T07:30:05.575Z,101241.47
2022-10-11T07:31:08.024Z,101243.94
2022-10-11T07:32:09.483Z,101245.28
2022-10-11T07:33:11.054Z,101243.47
2022-10-11T07:34:12.555Z,101239.13
2022-10-11T07:35:14.051Z,101241.03
2022-10-11T07:36:15.550Z,101234.69
2022-10-11T07:37:17.016Z,101232.06
2022-10-11T07:38:18.520Z,101233.94
2022-10-11T07:39:20.035Z,101233.81
2022-10-11T07:40:21.470Z,101231.53
2022-10-11T07:41:22.952Z,101235.16
2022-10-11T07:42:24.394Z,101234.78
2022-10-11T07:43:25.859Z,101235.88
2022-10-11T07:44:27.391Z,101230.69
2022-10-11T07:45:28.944Z,101241.97
2022-10-11T07:46:30.570Z,101233.94
2022-10-11T07:47:32.202Z,101235.25
2022-10-11T07:48:34.019Z,101228.94
2022-10-11T07:49:35.545Z,101235.81
2022-10-11T07:50:36.992Z,101238.59
2022-10-11T07:51:38.422Z,101232.31
2022-10-11T07:52:40.569Z,101237.38
2022-10-11T07:53:45.932Z,101242.34
2022-10-11T07:54:50.497Z,101245.88
2022-10-11T07:55:51.979Z,101242.06
2022-10-11T07:56:53.436Z,101235.16
2022-10-11T07:57:55.150Z,101234.22
2022-10-11T07:58:57.391Z,101236.16
2022-10-11T07:59:58.875Z,101242.16
2022-10-11T08:01:00.559Z,101244.88
2022-10-11T08:02:02.136Z,101239.09
2022-10-11T08:03:04.267Z,101244.88
2022-10-11T08:04:05.953Z,101242.56
2022-10-11T08:05:07.555Z,101240.47
2022-10-11T08:06:09.706Z,101240.47
2022-10-11T08:07:11.548Z,101231.66
2022-10-11T08:08:13.026Z,101242.81
2022-10-11T08:09:14.666Z,101242.94
2022-10-11T08:10:16.110Z,101240.75
2022-10-11T08:11:24.116Z,101235.31
2022-10-11T08:12:25.641Z,101244.97
2022-10-11T08:13:27.139Z,101242.56
2022-10-11T08:14:28.596Z,101239.13
2022-10-11T08:15:30.073Z,101247.22
2022-10-11T08:16:31.969Z,101247.75
2022-10-11T08:17:33.446Z,101247.03
2022-10-11T08:18:34.952Z,101247.53
2022-10-11T08:19:36.400Z,101244.50
2022-10-11T08:20:38.619Z,101246.28
2022-10-11T08:21:40.131Z,101250.03
2022-10-11T08:22:42.048Z,101257.81
2022-10-11T08:23:43.555Z,101257.19
2022-10-11T08:24:45.063Z,101251.91
2022-10-11T08:25:46.967Z,101252.13
2022-10-11T08:26:48.456Z,101256.31
2022-10-11T08:27:49.918Z,101257.38
2022-10-11T08:28:51.389Z,101257.78
2022-10-11T08:29:52.874Z,101259.97
2022-10-11T08:30:54.725Z,101259.03
2022-10-11T08:31:56.480Z,101261.44
2022-10-11T08:32:57.976Z,101254.81
2022-10-11T08:33:59.407Z,101256.34
2022-10-11T08:35:00.960Z,101253.91
2022-10-11T08:36:04.316Z,101257.09
2022-10-11T08:37:06.180Z,101263.94
2022-10-11T08:38:07.679Z,101259.38
2022-10-11T08:39:09.210Z,101267.78
2022-10-11T08:40:12.447Z,101262.50
2022-10-11T08:41:19.586Z,101263.91
2022-10-11T08:42:32.362Z,101260.13
2022-10-11T08:43:42.832Z,101254.94
2022-10-11T08:45:09.572Z,101257.00
2022-10-11T08:46:08.604Z,101252.03
2022-10-11T08:47:29.328Z,101261.84
2022-10-11T08:48:38.429Z,101251.78
2022-10-11T08:49:39.882Z,101263.41
2022-10-11T08:50:41.410Z,101260.06
2022-10-11T08:51:43.727Z,101251.00
2022-10-11T08:52:47.554Z,101251.25
2022-10-11T08:53:53.317Z,101250.88
2022-10-11T08:55:08.310Z,101258.88
2022-10-11T08:56:10.924Z,101265.41
2022-10-11T08:57:16.643Z,101265.97
2022-10-11T08:58:19.706Z,101259.69
2022-10-11T08:59:25.282Z,101257.31
2022-10-11T09:00:27.886Z,101254.59
2022-10-11T09:01:29.479Z,101257.09
2022-10-11T09:02:56.078Z,101265.22
2022-10-11T09:04:00.162Z,101256.94
2022-10-11T09:05:01.991Z,101261.53
2022-10-11T09:06:03.875Z,101264.13
2022-10-11T09:07:07.527Z,101257.47
2022-10-11T09:08:25.021Z,101263.91
2022-10-11T09:09:45.095Z,101260.50
2022-10-11T09:11:06.731Z,101254.19
2022-10-11T09:12:13.883Z,101261.09
2022-10-11T09:13:18.345Z,101252.22
2022-10-11T09:14:38.264Z,101250.53
2022-10-11T09:15:42.471Z,101260.09
2022-10-11T09:16:46.746Z,101250.69
2022-10-11T09:17:48.144Z,101251.50
2022-10-11T09:19:06.754Z,101250.00
2022-10-11T09:20:22.746Z,101252.94
2022-10-11T09:21:29.995Z,101257.97
2022-10-11T09:22:43.664Z,101252.91
2022-10-11T09:23:57.513Z,101257.56
2022-10-11T09:25:17.352Z,101254.13
2022-10-11T09:26:21.158Z,101247.63
2022-10-11T09:27:50.276Z,101245.09
2022-10-11T09:28:50.652Z,101253.44
2022-10-11T09:29:58.182Z,101254.69
2022-10-11T09:30:59.691Z,101249.72
2022-10-11T09:32:01.212Z,101251.00
2022-10-11T09:33:21.323Z,101250.84
2022-10-11T09:34:24.298Z,101254.16
2022-10-11T09:35:25.826Z,101255.84
2022-10-11T09:36:41.176Z,101251.97
2022-10-11T09:37:59.442Z,101254.81
2022-10-11T09:39:07.875Z,101256.34
2022-10-11T09:40:12.154Z,101258.53
2022-10-11T09:41:15.203Z,101254.16
2022-10-11T09:42:17.180Z,101248.28
2022-10-11T09:43:18.724Z,101258.34
2022-10-11T09:44:21.899Z,101255.41
2022-10-11T09:45:23.750Z,101251.88
2022-10-11T09:46:31.425Z,101253.88
2022-10-11T09:47:33.095Z,101263.88
2022-10-11T09:48:38.754Z,101257.47
2022-10-11T09:49:40.951Z,101255.78
2022-10-11T09:50:42.452Z,101256.63
2022-10-11T09:51:46.071Z,101251.69
2022-10-11T09:52:50.886Z,101247.38
2022-10-11T09:53:52.328Z,101247.03
2022-10-11T09:54:58.042Z,101251.25
2022-10-11T09:56:02.975Z,101243.16
2022-10-11T09:57:04.678Z,101254.06
2022-10-11T09:58:06.699Z,101252.81
2022-10-11T09:59:08.457Z,101252.16
2022-10-11T10:00:23.347Z,101253.50
2022-10-11T10:01:25.172Z,101255.78
2022-10-11T10:02:27.434Z,101250.69
2022-10-11T10:03:29.864Z,101253.72
2022-10-11T10:04:31.421Z,101254.09
2022-10-11T10:05:33.812Z,101252.28
2022-10-11T10:06:35.314Z,101246.75
2022-10-11T10:07:40.945Z,101250.22
2022-10-11T10:08:47.609Z,101251.25
2022-10-11T10:09:49.753Z,101246.09
2022-10-11T10:10:59.433Z,101250.59
2022-10-11T10:12:01.283Z,101243.91
2022-10-11T10:13:03.850Z,101235.38
2022-10-11T10:14:05.294Z,101241.06
2022-10-11T10:15:07.664Z,101232.31
2022-10-11T10:16:18.287Z,101233.44
2022-10-11T10:17:19.746Z,101238.22
2022-10-11T10:18:26.172Z,101239.38
2022-10-11T10:19:27.630Z,101238.22
2022-10-11T10:20:35.343Z,101233.94
2022-10-11T10:21:37.471Z,101240.38
2022-10-11T10:22:38.923Z,101236.19
2022-10-11T10:23:40.684Z,101239.03
2022-10-11T10:24:42.475Z,101240.50
2022-10-11T10:25:43.947Z,101238.69
2022-10-11T10:27:03.867Z,101243.50
2022-10-11T10:28:22.273Z,101232.28
2022-10-11T10:29:23.871Z,101238.22
2022-10-11T10:30:25.317Z,101228.50
2022-10-11T10:32:08.783Z,101229.16
2022-10-11T10:33:08.561Z,101231.88
2022-10-11T10:34:14.168Z,101229.53
2022-10-11T10:35:18.532Z,101229.28
2022-10-11T10:36:21.833Z,101230.94
2022-10-11T10:37:29.604Z,101227.66
2022-10-11T10:38:31.373Z,101230.50
2022-10-11T10:39:42.387Z,101230.19
2022-10-11T10:40:45.654Z,101223.97
2022-10-11T10:41:47.484Z,101237.91
2022-10-11T10:42:49.699Z,101233.53
2022-10-11T10:43:56.002Z,101227.19
2022-10-11T10:44:58.640Z,101231.22
2022-10-11T10:46:00.346Z,101220.50
2022-10-11T10:47:04.594Z,101230.69
2022-10-11T10:48:18.307Z,101223.59
2022-10-11T10:49:52.443Z,101233.03
2022-10-11T10:50:50.788Z,101228.91
2022-10-11T10:52:18.624Z,101226.38
2022-10-11T10:53:26.043Z,101227.22
2022-10-11T10:54:30.312Z,101224.66
2022-10-11T10:55:31.792Z,101227.16
2022-10-11T10:56:38.259Z,101234.00
2022-10-11T10:57:54.636Z,101228.13
2022-10-11T10:58:56.041Z,101224.66
2022-10-11T11:00:06.581Z,101230.66
2022-10-11T11:01:24.096Z,101224.13
2022-10-11T11:02:40.362Z,101224.13
2022-10-11T11:03:44.301Z,101229.16
2022-10-11T11:04:48.323Z,101213.28
2022-10-11T11:05:56.009Z,101221.41
2022-10-11T11:07:09.861Z,101218.38
2022-10-11T11:08:29.918Z,101225.72
2022-10-11T11:09:50.366Z,101227.41
2022-10-11T11:11:01.381Z,101225.28
2022-10-11T11:12:05.913Z,101219.47
2022-10-11T11:13:16.278Z,101222.31
2022-10-11T11:14:23.819Z,101227.50
2022-10-11T11:15:39.067Z,101222.56
2022-10-11T11:16:42.570Z,101214.19
2022-10-11T11:17:44.054Z,101224.25
2022-10-11T11:18:54.355Z,101214.13
2022-10-11T11:19:55.795Z,101213.47
2022-10-11T11:21:15.617Z,101216.81
2022-10-11T11:22:23.220Z,101208.47
2022-10-11T11:23:31.890Z,101211.19
2022-10-11T11:24:51.566Z,101213.91
2022-10-11T11:25:57.312Z,101206.03
2022-10-11T11:27:01.430Z,101215.56
2022-10-11T11:28:21.602Z,101205.75
2022-10-11T11:29:23.124Z,101208.13
2022-10-11T11:30:42.795Z,101206.97
2022-10-11T11:31:44.235Z,101202.13
2022-10-11T11:33:00.795Z,101198.31
2022-10-11T11:34:09.945Z,101196.81
2022-10-11T11:35:17.093Z,101203.03
2022-10-11T11:36:21.099Z,101204.06
2022-10-11T11:37:25.575Z,101203.56
2022-10-11T11:38:46.948Z,101198.38
2022-10-11T11:39:49.138Z,101194.91
2022-10-11T11:40:55.059Z,101198.56
2022-10-11T11:41:58.086Z,101199.59
2022-10-11T11:43:00.243Z,101192.41
2022-10-11T11:44:03.395Z,101192.91
2022-10-11T11:45:06.072Z,101185.94
2022-10-11T11:46:12.874Z,101197.31
2022-10-11T11:47:17.931Z,101183.59
2022-10-11T11:48:20.218Z,101183.59
2022-10-11T11:49:23.893Z,101194.31
2022-10-11T11:50:27.866Z,101188.63
2022-10-11T11:51:32.760Z,101193.66
2022-10-11T11:52:39.629Z,101190.16
2022-10-11T11:53:47.502Z,101186.66
2022-10-11T11:55:04.137Z,101194.03
2022-10-11T11:56:41.064Z,101192.00
2022-10-11T11:57:57.800Z,101187.66
2022-10-11T11:59:05.399Z,101186.19
2022-10-11T12:00:14.151Z,101187.03
2022-10-11T12:01:15.588Z,101173.78
2022-10-11T12:02:26.302Z,101185.69
2022-10-11T12:03:28.692Z,101184.50
2022-10-11T12:04:31.731Z,101180.00
2022-10-11T12:05:33.972Z,101177.66
2022-10-11T12:06:37.879Z,101178.50
2022-10-11T12:07:50.486Z,101181.00
2022-10-11T12:09:21.573Z,101173.00
2022-10-11T12:10:25.999Z,101175.84
2022-10-11T12:11:36.719Z,101175.19
2022-10-11T12:12:38.256Z,101170.16